sensor_id;sensor_type;location;lat;lon;timestamp;pressure;altitude;pressure_sealevel;temperature;humidity
46291;BME280;32023;44.444;26.006;2023-09-12T00:01:15;100459.06;;;19.29;47.56
46291;BME280;32023;44.444;26.006;2023-09-12T00:03:41;100466.72;;;19.23;47.55
46291;BME280;32023;44.444;26.006;2023-09-12T00:06:15;100456.47;;;19.19;47.37
46291;BME280;32023;44.444;26.006;2023-09-12T00:08:41;100464.47;;;19.12;47.24
46291;BME280;32023;44.444;26.006;2023-09-12T00:11:15;100458.19;;;19.06;47.44
46291;BME280;32023;44.444;26.006;2023-09-12T00:13:42;100463.38;;;18.99;47.46
46291;BME280;32023;44.444;26.006;2023-09-12T00:16:13;100461.19;;;18.96;47.65
46291;BME280;32023;44.444;26.006;2023-09-12T00:18:40;100461.31;;;18.91;47.84
46291;BME280;32023;44.444;26.006;2023-09-12T00:21:06;100464.75;;;18.88;47.92
46291;BME280;32023;44.444;26.006;2023-09-12T00:23:34;100461.41;;;18.86;47.86
46291;BME280;32023;44.444;26.006;2023-09-12T00:28:59;100462.69;;;18.80;48.60
46291;BME280;32023;44.444;26.006;2023-09-12T00:31:27;100468.88;;;18.77;48.62
46291;BME280;32023;44.444;26.006;2023-09-12T00:33:59;100463.09;;;18.73;48.40
46291;BME280;32023;44.444;26.006;2023-09-12T00:37:00;100464.63;;;18.66;48.44
46291;BME280;32023;44.444;26.006;2023-09-12T00:39:31;100462.47;;;18.63;48.59
46291;BME280;32023;44.444;26.006;2023-09-12T00:42:11;100463.09;;;18.60;48.90
46291;BME280;32023;44.444;26.006;2023-09-12T00:44:38;100460.63;;;18.58;49.26
46291;BME280;32023;44.444;26.006;2023-09-12T00:47:09;100459.91;;;18.53;49.58
46291;BME280;32023;44.444;26.006;2023-09-12T00:49:45;100459.97;;;18.48;50.10
46291;BME280;32023;44.444;26.006;2023-09-12T00:52:24;100465.13;;;18.41;50.58
46291;BME280;32023;44.444;26.006;2023-09-12T00:54:54;100463.28;;;18.36;50.70
46291;BME280;32023;44.444;26.006;2023-09-12T00:57:51;100467.59;;;18.28;50.72
46291;BME280;32023;44.444;26.006;2023-09-12T01:00:20;100453.44;;;18.25;51.33
46291;BME280;32023;44.444;26.006;2023-09-12T01:02:48;100466.34;;;18.21;51.72
46291;BME280;32023;44.444;26.006;2023-09-12T01:05:16;100458.31;;;18.19;51.68
46291;BME280;32023;44.444;26.006;2023-09-12T01:08:13;100473.16;;;18.15;51.67
46291;BME280;32023;44.444;26.006;2023-09-12T01:10:43;100459.53;;;18.13;51.84
46291;BME280;32023;44.444;26.006;2023-09-12T01:13:15;100462.94;;;18.10;52.08
46291;BME280;32023;44.444;26.006;2023-09-12T01:15:45;100468.00;;;18.08;52.17
46291;BME280;32023;44.444;26.006;2023-09-12T01:18:17;100468.00;;;18.08;52.26
46291;BME280;32023;44.444;26.006;2023-09-12T01:21:10;100464.69;;;18.06;52.62
46291;BME280;32023;44.444;26.006;2023-09-12T01:29:39;100459.81;;;17.98;53.27
46291;BME280;32023;44.444;26.006;2023-09-12T01:32:12;100463.44;;;17.99;53.29
46291;BME280;32023;44.444;26.006;2023-09-12T01:34:39;100463.53;;;17.94;53.58
46291;BME280;32023;44.444;26.006;2023-09-12T01:37:16;100466.63;;;17.92;53.91
46291;BME280;32023;44.444;26.006;2023-09-12T01:39:50;100466.91;;;17.91;54.34
46291;BME280;32023;44.444;26.006;2023-09-12T01:42:20;100468.06;;;17.90;54.57
46291;BME280;32023;44.444;26.006;2023-09-12T01:44:56;100474.22;;;17.87;54.79
46291;BME280;32023;44.444;26.006;2023-09-12T01:47:24;100479.59;;;17.83;54.80
46291;BME280;32023;44.444;26.006;2023-09-12T01:49:56;100483.81;;;17.80;54.88
46291;BME280;32023;44.444;26.006;2023-09-12T01:52:25;100477.50;;;17.75;55.05
46291;BME280;32023;44.444;26.006;2023-09-12T01:54:53;100475.31;;;17.72;55.20
46291;BME280;32023;44.444;26.006;2023-09-12T01:57:20;100490.41;;;17.71;55.27
46291;BME280;32023;44.444;26.006;2023-09-12T01:59:58;100480.69;;;17.68;55.46
46291;BME280;32023;44.444;26.006;2023-09-12T02:02:25;100480.16;;;17.66;55.69
46291;BME280;32023;44.444;26.006;2023-09-12T02:05:03;100482.13;;;17.66;55.89
46291;BME280;32023;44.444;26.006;2023-09-12T02:07:37;100473.22;;;17.64;56.33
46291;BME280;32023;44.444;26.006;2023-09-12T02:10:04;100473.56;;;17.62;56.61
46291;BME280;32023;44.444;26.006;2023-09-12T02:12:37;100481.06;;;17.62;57.04
46291;BME280;32023;44.444;26.006;2023-09-12T02:15:07;100453.22;;;17.43;57.33
46291;BME280;32023;44.444;26.006;2023-09-12T02:17:48;100477.50;;;17.56;57.57
46291;BME280;32023;44.444;26.006;2023-09-12T02:20:16;100475.88;;;17.55;57.29
46291;BME280;32023;44.444;26.006;2023-09-12T02:22:57;100479.78;;;17.54;57.20
46291;BME280;32023;44.444;26.006;2023-09-12T02:25:26;100479.25;;;17.52;57.37
46291;BME280;32023;44.444;26.006;2023-09-12T02:27:52;100482.63;;;17.49;57.50
46291;BME280;32023;44.444;26.006;2023-09-12T02:30:28;100488.53;;;17.48;57.69
46291;BME280;32023;44.444;26.006;2023-09-12T02:33:05;100487.16;;;17.45;57.72
46291;BME280;32023;44.444;26.006;2023-09-12T02:35:31;100491.91;;;17.45;57.64
46291;BME280;32023;44.444;26.006;2023-09-12T02:38:21;100485.06;;;17.37;57.51
46291;BME280;32023;44.444;26.006;2023-09-12T02:40:47;100490.38;;;17.33;57.49
46291;BME280;32023;44.444;26.006;2023-09-12T02:43:14;100481.53;;;17.31;57.41
46291;BME280;32023;44.444;26.006;2023-09-12T02:45:40;100489.34;;;17.29;57.57
46291;BME280;32023;44.444;26.006;2023-09-12T02:48:06;100485.19;;;17.27;57.47
46291;BME280;32023;44.444;26.006;2023-09-12T02:50:56;100483.31;;;17.22;57.72
46291;BME280;32023;44.444;26.006;2023-09-12T02:53:33;100489.50;;;17.19;57.51
46291;BME280;32023;44.444;26.006;2023-09-12T02:56:09;100484.03;;;17.14;57.50
46291;BME280;32023;44.444;26.006;2023-09-12T02:58:35;100491.00;;;17.12;57.49
46291;BME280;32023;44.444;26.006;2023-09-12T03:01:07;100487.38;;;17.11;57.94
46291;BME280;32023;44.444;26.006;2023-09-12T03:03:36;100477.69;;;17.09;57.31
46291;BME280;32023;44.444;26.006;2023-09-12T03:06:03;100474.06;;;17.08;57.02
46291;BME280;32023;44.444;26.006;2023-09-12T03:08:29;100480.19;;;17.10;56.40
46291;BME280;32023;44.444;26.006;2023-09-12T03:10:57;100481.81;;;17.11;56.45
46291;BME280;32023;44.444;26.006;2023-09-12T03:13:27;100485.75;;;17.10;56.38
46291;BME280;32023;44.444;26.006;2023-09-12T03:15:56;100486.53;;;17.11;56.52
46291;BME280;32023;44.444;26.006;2023-09-12T03:18:28;100487.97;;;17.08;55.98
46291;BME280;32023;44.444;26.006;2023-09-12T03:20:58;100488.31;;;17.07;55.43
46291;BME280;32023;44.444;26.006;2023-09-12T03:23:31;100481.38;;;17.04;55.96
46291;BME280;32023;44.444;26.006;2023-09-12T03:26:07;100492.50;;;17.04;55.84
46291;BME280;32023;44.444;26.006;2023-09-12T03:28:38;100492.25;;;17.01;55.92
46291;BME280;32023;44.444;26.006;2023-09-12T03:31:11;100497.09;;;16.95;55.87
46291;BME280;32023;44.444;26.006;2023-09-12T03:33:38;100497.91;;;16.96;56.22
46291;BME280;32023;44.444;26.006;2023-09-12T03:36:16;100465.09;;;16.74;56.83
46291;BME280;32023;44.444;26.006;2023-09-12T03:38:52;100496.84;;;16.92;57.11
46291;BME280;32023;44.444;26.006;2023-09-12T03:41:22;100497.75;;;16.87;57.81
46291;BME280;32023;44.444;26.006;2023-09-12T03:43:55;100492.78;;;16.84;57.85
46291;BME280;32023;44.444;26.006;2023-09-12T03:46:24;100503.06;;;16.83;58.46
46291;BME280;32023;44.444;26.006;2023-09-12T03:48:51;100495.03;;;16.82;58.52
46291;BME280;32023;44.444;26.006;2023-09-12T03:51:47;100490.88;;;16.79;57.86
46291;BME280;32023;44.444;26.006;2023-09-12T03:54:13;100493.97;;;16.78;58.08
46291;BME280;32023;44.444;26.006;2023-09-12T03:56:53;100490.13;;;16.74;57.36
46291;BME280;32023;44.444;26.006;2023-09-12T03:59:36;100489.59;;;16.72;57.57
46291;BME280;32023;44.444;26.006;2023-09-12T04:02:06;100491.53;;;16.71;57.62
46291;BME280;32023;44.444;26.006;2023-09-12T04:04:36;100489.88;;;16.70;57.98
46291;BME280;32023;44.444;26.006;2023-09-12T04:07:04;100487.94;;;16.71;57.91
46291;BME280;32023;44.444;26.006;2023-09-12T04:09:34;100491.00;;;16.69;57.99
46291;BME280;32023;44.444;26.006;2023-09-12T04:12:00;100491.31;;;16.68;58.49
46291;BME280;32023;44.444;26.006;2023-09-12T04:14:35;100489.06;;;16.70;58.79
46291;BME280;32023;44.444;26.006;2023-09-12T04:17:04;100487.09;;;16.70;58.57
46291;BME280;32023;44.444;26.006;2023-09-12T04:19:31;100491.84;;;16.70;57.97
46291;BME280;32023;44.444;26.006;2023-09-12T04:21:57;100496.81;;;16.73;57.62
46291;BME280;32023;44.444;26.006;2023-09-12T04:24:24;100496.00;;;16.72;57.69
46291;BME280;32023;44.444;26.006;2023-09-12T04:26:50;100495.06;;;16.77;57.21
46291;BME280;32023;44.444;26.006;2023-09-12T04:29:16;100500.59;;;16.82;57.71
46291;BME280;32023;44.444;26.006;2023-09-12T04:31:43;100496.09;;;16.86;57.78
46291;BME280;32023;44.444;26.006;2023-09-12T04:34:09;100492.69;;;16.89;57.18
46291;BME280;32023;44.444;26.006;2023-09-12T04:36:40;100492.94;;;16.93;56.56
46291;BME280;32023;44.444;26.006;2023-09-12T04:39:06;100502.34;;;16.97;56.30
46291;BME280;32023;44.444;26.006;2023-09-12T04:41:33;100493.09;;;17.01;56.37
46291;BME280;32023;44.444;26.006;2023-09-12T04:43:59;100494.16;;;17.05;56.69
46291;BME280;32023;44.444;26.006;2023-09-12T04:46:28;100499.34;;;17.12;56.63
46291;BME280;32023;44.444;26.006;2023-09-12T04:48:57;100494.53;;;17.17;56.74
46291;BME280;32023;44.444;26.006;2023-09-12T04:51:23;100500.84;;;17.23;56.83
46291;BME280;32023;44.444;26.006;2023-09-12T04:53:50;100498.22;;;17.31;56.19
46291;BME280;32023;44.444;26.006;2023-09-12T04:56:22;100500.94;;;17.37;55.57
46291;BME280;32023;44.444;26.006;2023-09-12T04:58:50;100503.63;;;17.42;55.05
46291;BME280;32023;44.444;26.006;2023-09-12T05:01:17;100504.41;;;17.47;54.58
46291;BME280;32023;44.444;26.006;2023-09-12T05:03:43;100512.06;;;17.55;54.51
46291;BME280;32023;44.444;26.006;2023-09-12T05:06:10;100519.44;;;17.65;54.01
46291;BME280;32023;44.444;26.006;2023-09-12T05:08:39;100512.06;;;17.74;53.79
46291;BME280;32023;44.444;26.006;2023-09-12T05:11:05;100514.69;;;17.84;53.78
46291;BME280;32023;44.444;26.006;2023-09-12T05:13:32;100514.00;;;17.92;53.40
46291;BME280;32023;44.444;26.006;2023-09-12T05:16:01;100512.97;;;18.02;52.92
46291;BME280;32023;44.444;26.006;2023-09-12T05:18:27;100519.22;;;18.12;52.61
46291;BME280;32023;44.444;26.006;2023-09-12T05:20:54;100522.94;;;18.21;52.47
46291;BME280;32023;44.444;26.006;2023-09-12T05:23:23;100513.25;;;18.33;52.50
46291;BME280;32023;44.444;26.006;2023-09-12T05:25:49;100521.13;;;18.44;52.18
46291;BME280;32023;44.444;26.006;2023-09-12T05:28:19;100517.03;;;18.55;51.80
46291;BME280;32023;44.444;26.006;2023-09-12T05:30:47;100516.00;;;18.65;51.55
46291;BME280;32023;44.444;26.006;2023-09-12T05:33:14;100522.72;;;18.77;50.93
46291;BME280;32023;44.444;26.006;2023-09-12T05:35:40;100517.22;;;18.86;50.68
46291;BME280;32023;44.444;26.006;2023-09-12T05:38:07;100515.97;;;18.92;50.56
46291;BME280;32023;44.444;26.006;2023-09-12T05:40:33;100517.75;;;19.02;50.25
46291;BME280;32023;44.444;26.006;2023-09-12T05:43:03;100524.13;;;19.16;49.95
46291;BME280;32023;44.444;26.006;2023-09-12T05:45:32;100525.44;;;19.32;49.84
46291;BME280;32023;44.444;26.006;2023-09-12T05:47:59;100524.00;;;19.48;49.53
46291;BME280;32023;44.444;26.006;2023-09-12T05:50:26;100495.88;;;19.45;49.10
46291;BME280;32023;44.444;26.006;2023-09-12T05:52:52;100525.41;;;19.82;48.49
46291;BME280;32023;44.444;26.006;2023-09-12T05:55:24;100531.94;;;19.99;48.15
46291;BME280;32023;44.444;26.006;2023-09-12T05:57:51;100534.34;;;20.14;48.03
46291;BME280;32023;44.444;26.006;2023-09-12T06:00:23;100535.00;;;20.34;47.50
46291;BME280;32023;44.444;26.006;2023-09-12T06:02:49;100530.28;;;20.51;47.00
46291;BME280;32023;44.444;26.006;2023-09-12T06:05:18;100530.06;;;20.70;46.58
46291;BME280;32023;44.444;26.006;2023-09-12T06:07:44;100540.50;;;20.87;46.30
46291;BME280;32023;44.444;26.006;2023-09-12T06:10:12;100548.13;;;21.03;45.94
46291;BME280;32023;44.444;26.006;2023-09-12T06:12:39;100548.19;;;21.21;45.65
46291;BME280;32023;44.444;26.006;2023-09-12T06:15:06;100541.00;;;21.37;45.29
46291;BME280;32023;44.444;26.006;2023-09-12T06:17:35;100546.44;;;21.50;44.87
46291;BME280;32023;44.444;26.006;2023-09-12T06:20:17;100540.34;;;21.66;44.49
46291;BME280;32023;44.444;26.006;2023-09-12T06:23:11;100548.56;;;21.79;44.30
46291;BME280;32023;44.444;26.006;2023-09-12T06:25:43;100548.78;;;22.00;44.22
46291;BME280;32023;44.444;26.006;2023-09-12T06:28:52;100551.22;;;22.19;43.55
46291;BME280;32023;44.444;26.006;2023-09-12T06:31:18;100544.91;;;22.39;42.71
46291;BME280;32023;44.444;26.006;2023-09-12T06:33:52;100550.81;;;22.54;42.29
46291;BME280;32023;44.444;26.006;2023-09-12T06:36:19;100553.91;;;22.70;41.83
46291;BME280;32023;44.444;26.006;2023-09-12T06:39:20;100554.81;;;22.91;41.57
46291;BME280;32023;44.444;26.006;2023-09-12T06:42:29;100555.22;;;23.11;40.88
46291;BME280;32023;44.444;26.006;2023-09-12T06:45:07;100554.25;;;23.36;40.51
46291;BME280;32023;44.444;26.006;2023-09-12T06:48:24;100562.06;;;23.60;39.89
46291;BME280;32023;44.444;26.006;2023-09-12T06:51:23;100559.03;;;23.85;38.63
46291;BME280;32023;44.444;26.006;2023-09-12T06:54:24;100561.22;;;24.01;38.39
46291;BME280;32023;44.444;26.006;2023-09-12T06:57:25;100560.78;;;24.11;38.07
46291;BME280;32023;44.444;26.006;2023-09-12T07:02:33;100562.28;;;24.29;37.29
46291;BME280;32023;44.444;26.006;2023-09-12T07:05:10;100566.03;;;24.33;36.88
46291;BME280;32023;44.444;26.006;2023-09-12T07:07:36;100578.44;;;24.53;36.35
46291;BME280;32023;44.444;26.006;2023-09-12T07:10:03;100568.28;;;24.72;35.80
46291;BME280;32023;44.444;26.006;2023-09-12T07:12:35;100565.63;;;25.00;35.58
46291;BME280;32023;44.444;26.006;2023-09-12T07:15:05;100566.22;;;25.18;35.01
46291;BME280;32023;44.444;26.006;2023-09-12T07:17:31;100569.72;;;25.39;34.15
46291;BME280;32023;44.444;26.006;2023-09-12T07:20:01;100567.00;;;25.67;33.75
46291;BME280;32023;44.444;26.006;2023-09-12T07:22:27;100572.56;;;25.91;33.32
46291;BME280;32023;44.444;26.006;2023-09-12T07:24:54;100571.47;;;26.08;33.30
46291;BME280;32023;44.444;26.006;2023-09-12T07:27:23;100568.00;;;26.26;33.09
46291;BME280;32023;44.444;26.006;2023-09-12T07:29:54;100574.38;;;26.51;32.61
46291;BME280;32023;44.444;26.006;2023-09-12T07:32:23;100572.06;;;26.57;32.46
46291;BME280;32023;44.444;26.006;2023-09-12T07:34:56;100562.63;;;26.65;32.15
46291;BME280;32023;44.444;26.006;2023-09-12T07:37:22;100566.09;;;26.90;31.64
46291;BME280;32023;44.444;26.006;2023-09-12T07:39:49;100567.84;;;26.94;31.05
46291;BME280;32023;44.444;26.006;2023-09-12T07:42:15;100571.22;;;27.15;30.89
46291;BME280;32023;44.444;26.006;2023-09-12T07:44:41;100579.66;;;27.31;30.68
46291;BME280;32023;44.444;26.006;2023-09-12T07:47:22;100559.84;;;27.62;30.31
46291;BME280;32023;44.444;26.006;2023-09-12T07:49:53;100559.72;;;27.94;30.12
46291;BME280;32023;44.444;26.006;2023-09-12T07:52:20;100560.47;;;28.10;29.44
46291;BME280;32023;44.444;26.006;2023-09-12T07:54:53;100560.16;;;27.96;29.74
46291;BME280;32023;44.444;26.006;2023-09-12T07:57:27;100555.50;;;27.68;30.33
46291;BME280;32023;44.444;26.006;2023-09-12T07:59:54;100563.38;;;27.94;30.17
46291;BME280;32023;44.444;26.006;2023-09-12T08:02:23;100558.66;;;28.40;29.58
46291;BME280;32023;44.444;26.006;2023-09-12T08:04:50;100560.84;;;28.89;29.26
46291;BME280;32023;44.444;26.006;2023-09-12T08:07:20;100567.91;;;29.25;28.46
46291;BME280;32023;44.444;26.006;2023-09-12T08:10:02;100560.75;;;29.57;27.63
46291;BME280;32023;44.444;26.006;2023-09-12T08:12:29;100556.84;;;29.69;27.88
46291;BME280;32023;44.444;26.006;2023-09-12T08:14:59;100561.81;;;30.01;27.08
46291;BME280;32023;44.444;26.006;2023-09-12T08:17:26;100565.75;;;30.27;26.40
46291;BME280;32023;44.444;26.006;2023-09-12T08:20:01;100560.31;;;30.44;26.15
46291;BME280;32023;44.444;26.006;2023-09-12T08:22:28;100569.75;;;30.55;25.80
46291;BME280;32023;44.444;26.006;2023-09-12T08:24:54;100562.09;;;30.59;25.38
46291;BME280;32023;44.444;26.006;2023-09-12T08:27:24;100558.94;;;30.68;25.19
46291;BME280;32023;44.444;26.006;2023-09-12T08:29:53;100561.31;;;30.99;24.82
46291;BME280;32023;44.444;26.006;2023-09-12T08:32:21;100564.34;;;31.24;25.02
46291;BME280;32023;44.444;26.006;2023-09-12T08:34:50;100561.66;;;32.07;23.71
46291;BME280;32023;44.444;26.006;2023-09-12T08:37:19;100557.25;;;34.08;20.97
46291;BME280;32023;44.444;26.006;2023-09-12T08:39:48;100555.00;;;35.61;19.42
46291;BME280;32023;44.444;26.006;2023-09-12T08:42:16;100558.59;;;36.40;18.57
46291;BME280;32023;44.444;26.006;2023-09-12T08:44:48;100556.31;;;37.58;17.29
46291;BME280;32023;44.444;26.006;2023-09-12T08:47:20;100553.78;;;38.78;16.96
46291;BME280;32023;44.444;26.006;2023-09-12T08:49:48;100551.94;;;38.52;16.49
46291;BME280;32023;44.444;26.006;2023-09-12T08:52:24;100545.44;;;39.00;16.20
46291;BME280;32023;44.444;26.006;2023-09-12T08:54:56;100555.81;;;39.46;15.42
46291;BME280;32023;44.444;26.006;2023-09-12T08:57:25;100548.94;;;39.40;15.93
46291;BME280;32023;44.444;26.006;2023-09-12T09:00:06;100545.22;;;40.42;14.63
46291;BME280;32023;44.444;26.006;2023-09-12T09:02:53;100542.03;;;39.82;15.40
46291;BME280;32023;44.444;26.006;2023-09-12T09:05:25;100535.75;;;40.54;14.75
46291;BME280;32023;44.444;26.006;2023-09-12T09:07:53;100539.72;;;41.11;14.66
46291;BME280;32023;44.444;26.006;2023-09-12T09:10:24;100539.31;;;41.34;14.22
46291;BME280;32023;44.444;26.006;2023-09-12T09:12:50;100537.69;;;41.46;14.00
46291;BME280;32023;44.444;26.006;2023-09-12T09:15:29;100531.97;;;42.11;13.44
46291;BME280;32023;44.444;26.006;2023-09-12T09:18:06;100530.03;;;42.30;13.27
46291;BME280;32023;44.444;26.006;2023-09-12T09:20:38;100527.38;;;42.44;13.61
46291;BME280;32023;44.444;26.006;2023-09-12T09:23:08;100530.44;;;42.71;12.88
46291;BME280;32023;44.444;26.006;2023-09-12T09:25:52;100528.06;;;42.57;13.00
46291;BME280;32023;44.444;26.006;2023-09-12T09:28:26;100521.78;;;42.90;12.85
46291;BME280;32023;44.444;26.006;2023-09-12T09:30:57;100527.91;;;42.92;12.85
46291;BME280;32023;44.444;26.006;2023-09-12T09:33:24;100525.56;;;42.16;13.13
46291;BME280;32023;44.444;26.006;2023-09-12T09:35:54;100525.56;;;41.72;13.71
46291;BME280;32023;44.444;26.006;2023-09-12T09:38:31;100516.59;;;40.85;14.31
46291;BME280;32023;44.444;26.006;2023-09-12T09:40:58;100514.16;;;40.46;14.75
46291;BME280;32023;44.444;26.006;2023-09-12T09:43:31;100516.81;;;40.53;14.62
46291;BME280;32023;44.444;26.006;2023-09-12T09:45:58;100516.19;;;39.34;15.60
46291;BME280;32023;44.444;26.006;2023-09-12T09:48:34;100509.09;;;39.51;15.34
46291;BME280;32023;44.444;26.006;2023-09-12T09:51:14;100507.47;;;40.08;15.36
46291;BME280;32023;44.444;26.006;2023-09-12T09:53:45;100505.97;;;40.82;14.51
46291;BME280;32023;44.444;26.006;2023-09-12T09:56:21;100503.19;;;41.51;14.08
46291;BME280;32023;44.444;26.006;2023-09-12T10:01:48;100501.44;;;43.21;12.92
46291;BME280;32023;44.444;26.006;2023-09-12T10:04:15;100500.38;;;44.60;12.09
46291;BME280;32023;44.444;26.006;2023-09-12T10:06:45;100494.75;;;46.14;11.25
46291;BME280;32023;44.444;26.006;2023-09-12T10:09:16;100495.09;;;47.55;10.10
46291;BME280;32023;44.444;26.006;2023-09-12T10:11:47;100496.78;;;48.65;9.52
46291;BME280;32023;44.444;26.006;2023-09-12T10:14:26;100489.13;;;49.75;8.97
46291;BME280;32023;44.444;26.006;2023-09-12T10:16:57;100480.34;;;49.10;8.72
46291;BME280;32023;44.444;26.006;2023-09-12T10:22:28;100483.34;;;50.69;8.57
46291;BME280;32023;44.444;26.006;2023-09-12T10:24:58;100492.22;;;51.49;8.20
46291;BME280;32023;44.444;26.006;2023-09-12T10:27:42;100482.88;;;52.38;7.77
46291;BME280;32023;44.444;26.006;2023-09-12T10:30:13;100486.84;;;52.70;7.30
46291;BME280;32023;44.444;26.006;2023-09-12T10:32:42;100476.91;;;52.73;7.11
46291;BME280;32023;44.444;26.006;2023-09-12T10:35:11;100470.56;;;52.94;7.04
46291;BME280;32023;44.444;26.006;2023-09-12T10:37:38;100479.44;;;53.37;7.01
46291;BME280;32023;44.444;26.006;2023-09-12T10:40:16;100473.00;;;53.75;6.65
46291;BME280;32023;44.444;26.006;2023-09-12T10:42:43;100468.63;;;53.82;6.56
46291;BME280;32023;44.444;26.006;2023-09-12T10:45:10;100464.16;;;53.75;6.67
46291;BME280;32023;44.444;26.006;2023-09-12T10:47:38;100459.69;;;53.88;6.60
46291;BME280;32023;44.444;26.006;2023-09-12T10:50:10;100468.84;;;54.03;6.58
46291;BME280;32023;44.444;26.006;2023-09-12T10:52:40;100466.81;;;54.30;6.71
46291;BME280;32023;44.444;26.006;2023-09-12T10:55:08;100457.34;;;54.18;6.47
46291;BME280;32023;44.444;26.006;2023-09-12T10:58:07;100439.16;;;54.01;6.36
46291;BME280;32023;44.444;26.006;2023-09-12T11:01:09;100456.78;;;54.19;6.50
46291;BME280;32023;44.444;26.006;2023-09-12T11:10:43;100451.03;;;51.66;7.73
46291;BME280;32023;44.444;26.006;2023-09-12T11:13:38;100431.50;;;52.09;7.48
46291;BME280;32023;44.444;26.006;2023-09-12T11:16:34;100436.41;;;51.95;7.64
46291;BME280;32023;44.444;26.006;2023-09-12T11:22:01;100434.19;;;52.67;7.41
46291;BME280;32023;44.444;26.006;2023-09-12T11:24:43;100427.03;;;52.86;7.51
46291;BME280;32023;44.444;26.006;2023-09-12T11:27:12;100419.53;;;52.61;7.57
46291;BME280;32023;44.444;26.006;2023-09-12T11:29:51;100418.91;;;51.27;7.95
46291;BME280;32023;44.444;26.006;2023-09-12T11:32:43;100413.47;;;50.84;8.51
46291;BME280;32023;44.444;26.006;2023-09-12T11:35:10;100411.53;;;51.09;8.23
46291;BME280;32023;44.444;26.006;2023-09-12T11:38:00;100413.88;;;51.22;8.15
46291;BME280;32023;44.444;26.006;2023-09-12T11:40:44;100403.53;;;51.10;7.87
46291;BME280;32023;44.444;26.006;2023-09-12T11:43:41;100401.00;;;50.56;8.37
46291;BME280;32023;44.444;26.006;2023-09-12T11:46:32;100398.34;;;49.80;8.77
46291;BME280;32023;44.444;26.006;2023-09-12T11:49:05;100396.97;;;48.94;9.58
46291;BME280;32023;44.444;26.006;2023-09-12T11:51:48;100404.06;;;48.08;9.78
46291;BME280;32023;44.444;26.006;2023-09-12T11:54:18;100396.09;;;47.31;10.50
46291;BME280;32023;44.444;26.006;2023-09-12T11:56:50;100381.31;;;46.25;10.97
46291;BME280;32023;44.444;26.006;2023-09-12T11:59:23;100378.66;;;45.24;11.49
46291;BME280;32023;44.444;26.006;2023-09-12T12:02:14;100381.53;;;44.29;12.36
46291;BME280;32023;44.444;26.006;2023-09-12T12:04:48;100375.09;;;43.65;12.59
46291;BME280;32023;44.444;26.006;2023-09-12T12:07:14;100376.06;;;42.89;13.29
46291;BME280;32023;44.444;26.006;2023-09-12T12:09:42;100374.50;;;42.39;13.64
46291;BME280;32023;44.444;26.006;2023-09-12T12:12:13;100376.06;;;42.00;14.14
46291;BME280;32023;44.444;26.006;2023-09-12T12:14:41;100375.06;;;41.63;14.06
46291;BME280;32023;44.444;26.006;2023-09-12T12:17:16;100366.97;;;41.15;14.38
46291;BME280;32023;44.444;26.006;2023-09-12T12:19:46;100360.69;;;40.60;14.95
46291;BME280;32023;44.444;26.006;2023-09-12T12:22:13;100359.16;;;39.92;15.68
46291;BME280;32023;44.444;26.006;2023-09-12T12:24:43;100363.59;;;39.56;16.02
46291;BME280;32023;44.444;26.006;2023-09-12T12:27:15;100354.09;;;38.69;16.71
46291;BME280;32023;44.444;26.006;2023-09-12T12:29:53;100359.94;;;38.65;16.92
46291;BME280;32023;44.444;26.006;2023-09-12T12:32:25;100357.97;;;38.30;17.27
46291;BME280;32023;44.444;26.006;2023-09-12T12:34:51;100356.16;;;38.20;17.36
46291;BME280;32023;44.444;26.006;2023-09-12T12:37:20;100354.97;;;38.01;17.68
46291;BME280;32023;44.444;26.006;2023-09-12T12:39:52;100355.09;;;37.94;17.91
46291;BME280;32023;44.444;26.006;2023-09-12T12:42:20;100351.47;;;37.74;17.92
46291;BME280;32023;44.444;26.006;2023-09-12T12:44:54;100358.94;;;37.51;17.76
46291;BME280;32023;44.444;26.006;2023-09-12T12:47:23;100344.78;;;37.41;18.37
46291;BME280;32023;44.444;26.006;2023-09-12T12:50:19;100348.53;;;37.38;18.03
46291;BME280;32023;44.444;26.006;2023-09-12T12:53:11;100350.09;;;37.23;18.53
46291;BME280;32023;44.444;26.006;2023-09-12T12:59:10;100342.38;;;36.77;18.97
46291;BME280;32023;44.444;26.006;2023-09-12T13:01:46;100333.72;;;36.30;19.11
46291;BME280;32023;44.444;26.006;2023-09-12T13:04:15;100342.03;;;36.25;19.50
46291;BME280;32023;44.444;26.006;2023-09-12T13:07:02;100337.31;;;36.11;19.70
46291;BME280;32023;44.444;26.006;2023-09-12T13:09:43;100339.22;;;35.94;19.91
46291;BME280;32023;44.444;26.006;2023-09-12T13:12:48;100328.34;;;35.82;20.00
46291;BME280;32023;44.444;26.006;2023-09-12T13:15:45;100329.22;;;35.79;20.11
46291;BME280;32023;44.444;26.006;2023-09-12T13:18:20;100332.44;;;35.81;20.33
46291;BME280;32023;44.444;26.006;2023-09-12T13:20:47;100336.88;;;35.86;20.20
46291;BME280;32023;44.444;26.006;2023-09-12T13:26:25;100331.69;;;35.77;21.50
46291;BME280;32023;44.444;26.006;2023-09-12T13:29:10;100326.44;;;35.72;20.78
46291;BME280;32023;44.444;26.006;2023-09-12T13:31:45;100324.56;;;35.58;20.23
46291;BME280;32023;44.444;26.006;2023-09-12T13:36:49;100326.84;;;35.40;20.26
46291;BME280;32023;44.444;26.006;2023-09-12T13:42:24;100326.69;;;35.20;20.49
46291;BME280;32023;44.444;26.006;2023-09-12T13:44:57;100316.56;;;35.12;20.66
46291;BME280;32023;44.444;26.006;2023-09-12T13:47:23;100319.44;;;35.12;20.84
46291;BME280;32023;44.444;26.006;2023-09-12T13:59:59;100319.25;;;34.52;21.42